sensor_id;sensor_type;location;lat;lon;timestamp;P1;durP1;ratioP1;P2;durP2;ratioP2
11539;SDS011;5826;54.756;9.192;2022-09-24T00:00:24;6.03;;;5.43;;
11539;SDS011;5826;54.756;9.192;2022-09-24T00:02:50;6.60;;;5.90;;
11539;SDS011;5826;54.756;9.192;2022-09-24T00:05:16;6.57;;;5.97;;
11539;SDS011;5826;54.756;9.192;2022-09-24T00:07:41;6.72;;;6.13;;
11539;SDS011;5826;54.756;9.192;2022-09-24T00:10:07;5.95;;;5.35;;
11539;SDS011;5826;54.756;9.192;2022-09-24T00:12:33;6.80;;;6.10;;
11539;SDS011;5826;54.756;9.192;2022-09-24T00:14:58;6.47;;;5.80;;
11539;SDS011;5826;54.756;9.192;2022-09-24T00:17:24;7.03;;;6.22;;
11539;SDS011;5826;54.756;9.192;2022-09-24T00:19:49;7.57;;;6.45;;
11539;SDS011;5826;54.756;9.192;2022-09-24T00:22:15;7.38;;;6.68;;
11539;SDS011;5826;54.756;9.192;2022-09-24T00:24:40;7.13;;;6.43;;
11539;SDS011;5826;54.756;9.192;2022-09-24T00:27:24;7.35;;;6.65;;
11539;SDS011;5826;54.756;9.192;2022-09-24T00:29:51;8.00;;;6.85;;
11539;SDS011;5826;54.756;9.192;2022-09-24T00:32:16;8.80;;;6.75;;
11539;SDS011;5826;54.756;9.192;2022-09-24T00:34:42;6.95;;;6.25;;
11539;SDS011;5826;54.756;9.192;2022-09-24T00:37:07;7.63;;;6.90;;
11539;SDS011;5826;54.756;9.192;2022-09-24T00:39:33;6.82;;;6.13;;
11539;SDS011;5826;54.756;9.192;2022-09-24T00:41:59;6.60;;;6.00;;
11539;SDS011;5826;54.756;9.192;2022-09-24T00:47:18;7.50;;;6.80;;
11539;SDS011;5826;54.756;9.192;2022-09-24T00:49:59;7.03;;;6.32;;
11539;SDS011;5826;54.756;9.192;2022-09-24T00:52:30;7.35;;;6.65;;
11539;SDS011;5826;54.756;9.192;2022-09-24T00:54:56;7.25;;;6.55;;
11539;SDS011;5826;54.756;9.192;2022-09-24T00:57:22;7.25;;;6.65;;
11539;SDS011;5826;54.756;9.192;2022-09-24T00:59:48;6.97;;;6.13;;
11539;SDS011;5826;54.756;9.192;2022-09-24T01:02:14;6.38;;;5.63;;
11539;SDS011;5826;54.756;9.192;2022-09-24T01:04:39;7.70;;;6.90;;
11539;SDS011;5826;54.756;9.192;2022-09-24T01:07:05;8.52;;;7.63;;
11539;SDS011;5826;54.756;9.192;2022-09-24T01:09:30;7.95;;;7.20;;
11539;SDS011;5826;54.756;9.192;2022-09-24T01:14:46;8.45;;;7.22;;
11539;SDS011;5826;54.756;9.192;2022-09-24T01:28:14;7.40;;;6.70;;
11539;SDS011;5826;54.756;9.192;2022-09-24T01:30:43;7.15;;;6.40;;
11539;SDS011;5826;54.756;9.192;2022-09-24T01:33:12;7.30;;;6.60;;
11539;SDS011;5826;54.756;9.192;2022-09-24T01:35:43;7.78;;;7.05;;
11539;SDS011;5826;54.756;9.192;2022-09-24T01:38:16;7.35;;;6.75;;
11539;SDS011;5826;54.756;9.192;2022-09-24T01:40:45;7.10;;;6.50;;
11539;SDS011;5826;54.756;9.192;2022-09-24T01:43:12;7.20;;;6.50;;
11539;SDS011;5826;54.756;9.192;2022-09-24T01:45:39;7.70;;;7.00;;
11539;SDS011;5826;54.756;9.192;2022-09-24T01:48:06;7.28;;;6.57;;
11539;SDS011;5826;54.756;9.192;2022-09-24T01:50:34;7.43;;;6.57;;
11539;SDS011;5826;54.756;9.192;2022-09-24T01:53:29;8.35;;;6.53;;
11539;SDS011;5826;54.756;9.192;2022-09-24T01:56:01;6.53;;;5.93;;
11539;SDS011;5826;54.756;9.192;2022-09-24T01:58:33;7.15;;;6.47;;
11539;SDS011;5826;54.756;9.192;2022-09-24T02:01:06;7.55;;;6.75;;
11539;SDS011;5826;54.756;9.192;2022-09-24T02:03:37;7.28;;;6.57;;
11539;SDS011;5826;54.756;9.192;2022-09-24T02:06:12;7.78;;;6.30;;
11539;SDS011;5826;54.756;9.192;2022-09-24T02:08:45;7.00;;;6.32;;
11539;SDS011;5826;54.756;9.192;2022-09-24T02:11:16;6.32;;;5.80;;
11539;SDS011;5826;54.756;9.192;2022-09-24T02:13:48;7.55;;;6.85;;
11539;SDS011;5826;54.756;9.192;2022-09-24T02:16:19;7.13;;;6.43;;
11539;SDS011;5826;54.756;9.192;2022-09-24T02:18:49;7.30;;;6.60;;
11539;SDS011;5826;54.756;9.192;2022-09-24T02:21:18;8.40;;;7.32;;
11539;SDS011;5826;54.756;9.192;2022-09-24T02:23:50;7.05;;;6.35;;
11539;SDS011;5826;54.756;9.192;2022-09-24T02:26:21;8.15;;;6.90;;
11539;SDS011;5826;54.756;9.192;2022-09-24T02:28:47;7.15;;;6.50;;
11539;SDS011;5826;54.756;9.192;2022-09-24T02:31:13;7.38;;;6.65;;
11539;SDS011;5826;54.756;9.192;2022-09-24T02:34:02;7.50;;;6.80;;
11539;SDS011;5826;54.756;9.192;2022-09-24T02:36:51;8.35;;;6.63;;
11539;SDS011;5826;54.756;9.192;2022-09-24T02:39:29;7.20;;;6.55;;
11539;SDS011;5826;54.756;9.192;2022-09-24T02:41:54;7.93;;;7.13;;
11539;SDS011;5826;54.756;9.192;2022-09-24T02:44:22;7.57;;;6.78;;
11539;SDS011;5826;54.756;9.192;2022-09-24T02:46:48;8.30;;;7.50;;
11539;SDS011;5826;54.756;9.192;2022-09-24T02:49:14;7.95;;;7.15;;
11539;SDS011;5826;54.756;9.192;2022-09-24T02:51:41;7.88;;;6.85;;
11539;SDS011;5826;54.756;9.192;2022-09-24T02:54:07;7.40;;;6.70;;
11539;SDS011;5826;54.756;9.192;2022-09-24T02:56:33;7.35;;;6.53;;
11539;SDS011;5826;54.756;9.192;2022-09-24T02:58:59;7.93;;;6.68;;
11539;SDS011;5826;54.756;9.192;2022-09-24T03:01:26;8.63;;;7.82;;
11539;SDS011;5826;54.756;9.192;2022-09-24T03:03:52;7.68;;;6.93;;
11539;SDS011;5826;54.756;9.192;2022-09-24T03:06:17;7.50;;;6.80;;
11539;SDS011;5826;54.756;9.192;2022-09-24T03:08:43;7.75;;;6.78;;
11539;SDS011;5826;54.756;9.192;2022-09-24T03:11:09;7.63;;;6.82;;
11539;SDS011;5826;54.756;9.192;2022-09-24T03:13:35;8.02;;;6.95;;
11539;SDS011;5826;54.756;9.192;2022-09-24T03:16:02;7.28;;;6.57;;
11539;SDS011;5826;54.756;9.192;2022-09-24T03:18:28;7.55;;;6.85;;
11539;SDS011;5826;54.756;9.192;2022-09-24T03:20:55;7.22;;;6.53;;
11539;SDS011;5826;54.756;9.192;2022-09-24T03:23:24;7.53;;;6.78;;
11539;SDS011;5826;54.756;9.192;2022-09-24T03:25:50;6.65;;;6.05;;
11539;SDS011;5826;54.756;9.192;2022-09-24T03:28:16;7.57;;;6.88;;
11539;SDS011;5826;54.756;9.192;2022-09-24T03:30:42;7.70;;;7.00;;
11539;SDS011;5826;54.756;9.192;2022-09-24T03:33:23;7.32;;;6.63;;
11539;SDS011;5826;54.756;9.192;2022-09-24T03:36:13;7.00;;;6.35;;
11539;SDS011;5826;54.756;9.192;2022-09-24T03:38:45;7.43;;;6.72;;
11539;SDS011;5826;54.756;9.192;2022-09-24T03:41:12;8.18;;;7.38;;
11539;SDS011;5826;54.756;9.192;2022-09-24T03:43:38;7.90;;;7.10;;
11539;SDS011;5826;54.756;9.192;2022-09-24T03:46:05;7.40;;;6.80;;
11539;SDS011;5826;54.756;9.192;2022-09-24T03:48:32;7.30;;;6.60;;
11539;SDS011;5826;54.756;9.192;2022-09-24T03:51:17;6.93;;;6.32;;
11539;SDS011;5826;54.756;9.192;2022-09-24T03:53:43;7.90;;;6.97;;
11539;SDS011;5826;54.756;9.192;2022-09-24T03:56:09;7.03;;;6.43;;
11539;SDS011;5826;54.756;9.192;2022-09-24T03:58:36;8.70;;;7.90;;
11539;SDS011;5826;54.756;9.192;2022-09-24T04:01:02;7.07;;;6.47;;
11539;SDS011;5826;54.756;9.192;2022-09-24T04:03:32;7.10;;;6.45;;
11539;SDS011;5826;54.756;9.192;2022-09-24T04:05:58;7.60;;;6.90;;
11539;SDS011;5826;54.756;9.192;2022-09-24T04:08:23;7.13;;;6.43;;
11539;SDS011;5826;54.756;9.192;2022-09-24T04:10:49;7.05;;;6.38;;
11539;SDS011;5826;54.756;9.192;2022-09-24T04:13:15;7.35;;;6.65;;
11539;SDS011;5826;54.756;9.192;2022-09-24T04:15:42;7.45;;;6.75;;
11539;SDS011;5826;54.756;9.192;2022-09-24T04:18:08;6.80;;;6.20;;
11539;SDS011;5826;54.756;9.192;2022-09-24T04:20:33;7.15;;;6.45;;
11539;SDS011;5826;54.756;9.192;2022-09-24T04:22:59;7.40;;;6.70;;
11539;SDS011;5826;54.756;9.192;2022-09-24T04:25:26;6.40;;;5.80;;
11539;SDS011;5826;54.756;9.192;2022-09-24T04:27:55;7.30;;;6.60;;
11539;SDS011;5826;54.756;9.192;2022-09-24T04:30:22;7.10;;;6.40;;
11539;SDS011;5826;54.756;9.192;2022-09-24T04:32:49;7.47;;;6.68;;
11539;SDS011;5826;54.756;9.192;2022-09-24T04:35:17;7.18;;;6.40;;
11539;SDS011;5826;54.756;9.192;2022-09-24T04:37:45;7.38;;;6.30;;
11539;SDS011;5826;54.756;9.192;2022-09-24T04:40:11;7.63;;;6.93;;
11539;SDS011;5826;54.756;9.192;2022-09-24T04:42:40;7.90;;;7.20;;
11539;SDS011;5826;54.756;9.192;2022-09-24T04:45:07;7.43;;;6.63;;
11539;SDS011;5826;54.756;9.192;2022-09-24T04:47:34;7.63;;;6.63;;
11539;SDS011;5826;54.756;9.192;2022-09-24T04:50:00;7.90;;;7.13;;
11539;SDS011;5826;54.756;9.192;2022-09-24T04:52:26;7.22;;;6.63;;
11539;SDS011;5826;54.756;9.192;2022-09-24T04:54:53;8.98;;;7.38;;
11539;SDS011;5826;54.756;9.192;2022-09-24T04:57:21;7.95;;;7.15;;
11539;SDS011;5826;54.756;9.192;2022-09-24T04:59:47;9.00;;;8.07;;
11539;SDS011;5826;54.756;9.192;2022-09-24T05:02:12;8.45;;;7.65;;
11539;SDS011;5826;54.756;9.192;2022-09-24T05:04:38;8.60;;;7.80;;
11539;SDS011;5826;54.756;9.192;2022-09-24T05:07:03;7.72;;;7.03;;
11539;SDS011;5826;54.756;9.192;2022-09-24T05:09:29;8.75;;;7.68;;
11539;SDS011;5826;54.756;9.192;2022-09-24T05:11:58;8.93;;;8.10;;
11539;SDS011;5826;54.756;9.192;2022-09-24T05:14:24;8.65;;;7.47;;
11539;SDS011;5826;54.756;9.192;2022-09-24T05:16:49;7.55;;;6.85;;
11539;SDS011;5826;54.756;9.192;2022-09-24T05:19:15;7.50;;;6.80;;
11539;SDS011;5826;54.756;9.192;2022-09-24T05:21:40;8.63;;;7.72;;
11539;SDS011;5826;54.756;9.192;2022-09-24T05:24:06;7.25;;;6.50;;
11539;SDS011;5826;54.756;9.192;2022-09-24T05:26:31;7.78;;;7.07;;
11539;SDS011;5826;54.756;9.192;2022-09-24T05:29:15;7.55;;;6.85;;
11539;SDS011;5826;54.756;9.192;2022-09-24T05:31:41;7.68;;;6.97;;
11539;SDS011;5826;54.756;9.192;2022-09-24T05:34:07;7.97;;;7.20;;
11539;SDS011;5826;54.756;9.192;2022-09-24T05:36:32;7.30;;;6.60;;
11539;SDS011;5826;54.756;9.192;2022-09-24T05:38:58;8.93;;;8.13;;
11539;SDS011;5826;54.756;9.192;2022-09-24T05:41:23;8.25;;;7.45;;
11539;SDS011;5826;54.756;9.192;2022-09-24T05:43:49;9.65;;;8.68;;
11539;SDS011;5826;54.756;9.192;2022-09-24T05:46:15;8.38;;;7.57;;
11539;SDS011;5826;54.756;9.192;2022-09-24T05:48:40;8.82;;;7.93;;
11539;SDS011;5826;54.756;9.192;2022-09-24T05:51:06;8.45;;;7.68;;
11539;SDS011;5826;54.756;9.192;2022-09-24T05:53:31;8.73;;;7.82;;
11539;SDS011;5826;54.756;9.192;2022-09-24T05:55:58;8.43;;;7.63;;
11539;SDS011;5826;54.756;9.192;2022-09-24T05:58:23;8.55;;;7.75;;
11539;SDS011;5826;54.756;9.192;2022-09-24T06:00:51;8.88;;;7.97;;
11539;SDS011;5826;54.756;9.192;2022-09-24T06:03:17;9.13;;;8.23;;
11539;SDS011;5826;54.756;9.192;2022-09-24T06:05:44;9.05;;;8.25;;
11539;SDS011;5826;54.756;9.192;2022-09-24T06:08:12;9.23;;;8.15;;
11539;SDS011;5826;54.756;9.192;2022-09-24T06:10:39;8.32;;;7.43;;
11539;SDS011;5826;54.756;9.192;2022-09-24T06:13:10;9.77;;;8.40;;
11539;SDS011;5826;54.756;9.192;2022-09-24T06:15:39;8.90;;;8.10;;
11539;SDS011;5826;54.756;9.192;2022-09-24T06:18:06;8.65;;;7.85;;
11539;SDS011;5826;54.756;9.192;2022-09-24T06:20:32;8.20;;;7.40;;
11539;SDS011;5826;54.756;9.192;2022-09-24T06:22:58;9.10;;;8.20;;
11539;SDS011;5826;54.756;9.192;2022-09-24T06:25:24;8.27;;;7.57;;
11539;SDS011;5826;54.756;9.192;2022-09-24T06:27:57;8.07;;;7.22;;
11539;SDS011;5826;54.756;9.192;2022-09-24T06:30:31;9.13;;;8.23;;
11539;SDS011;5826;54.756;9.192;2022-09-24T06:33:02;8.65;;;7.80;;
11539;SDS011;5826;54.756;9.192;2022-09-24T06:35:29;8.80;;;7.97;;
11539;SDS011;5826;54.756;9.192;2022-09-24T06:37:57;9.90;;;8.90;;
11539;SDS011;5826;54.756;9.192;2022-09-24T06:40:23;9.75;;;8.82;;
11539;SDS011;5826;54.756;9.192;2022-09-24T06:42:50;10.85;;;9.77;;
11539;SDS011;5826;54.756;9.192;2022-09-24T06:45:16;9.68;;;8.77;;
11539;SDS011;5826;54.756;9.192;2022-09-24T06:47:43;10.35;;;9.35;;
11539;SDS011;5826;54.756;9.192;2022-09-24T06:50:08;9.48;;;8.45;;
11539;SDS011;5826;54.756;9.192;2022-09-24T06:52:34;8.95;;;8.15;;
11539;SDS011;5826;54.756;9.192;2022-09-24T06:54:59;8.60;;;7.75;;
11539;SDS011;5826;54.756;9.192;2022-09-24T06:57:24;9.63;;;8.65;;
11539;SDS011;5826;54.756;9.192;2022-09-24T06:59:50;9.02;;;8.13;;
11539;SDS011;5826;54.756;9.192;2022-09-24T07:02:16;9.00;;;8.15;;
11539;SDS011;5826;54.756;9.192;2022-09-24T07:04:41;10.00;;;8.88;;
11539;SDS011;5826;54.756;9.192;2022-09-24T07:07:07;9.70;;;8.80;;
11539;SDS011;5826;54.756;9.192;2022-09-24T07:09:50;9.73;;;8.80;;
11539;SDS011;5826;54.756;9.192;2022-09-24T07:12:16;9.35;;;8.45;;
11539;SDS011;5826;54.756;9.192;2022-09-24T07:14:41;9.70;;;8.70;;
11539;SDS011;5826;54.756;9.192;2022-09-24T07:17:07;10.25;;;9.25;;
11539;SDS011;5826;54.756;9.192;2022-09-24T07:19:32;9.32;;;8.48;;
11539;SDS011;5826;54.756;9.192;2022-09-24T07:21:58;9.20;;;8.32;;
11539;SDS011;5826;54.756;9.192;2022-09-24T07:24:23;9.43;;;8.52;;
11539;SDS011;5826;54.756;9.192;2022-09-24T07:26:49;8.35;;;7.55;;
11539;SDS011;5826;54.756;9.192;2022-09-24T07:29:14;8.93;;;8.02;;
11539;SDS011;5826;54.756;9.192;2022-09-24T07:31:40;9.10;;;8.20;;
11539;SDS011;5826;54.756;9.192;2022-09-24T07:34:06;9.50;;;8.57;;
11539;SDS011;5826;54.756;9.192;2022-09-24T07:36:32;8.88;;;7.82;;
11539;SDS011;5826;54.756;9.192;2022-09-24T07:38:58;9.23;;;8.32;;
11539;SDS011;5826;54.756;9.192;2022-09-24T07:41:25;9.20;;;8.30;;
11539;SDS011;5826;54.756;9.192;2022-09-24T07:43:50;9.25;;;8.13;;
11539;SDS011;5826;54.756;9.192;2022-09-24T07:46:16;8.98;;;8.10;;
11539;SDS011;5826;54.756;9.192;2022-09-24T07:48:41;8.90;;;8.00;;
11539;SDS011;5826;54.756;9.192;2022-09-24T07:51:10;8.13;;;7.30;;
11539;SDS011;5826;54.756;9.192;2022-09-24T07:53:36;8.70;;;7.90;;
11539;SDS011;5826;54.756;9.192;2022-09-24T07:56:02;9.48;;;8.07;;
11539;SDS011;5826;54.756;9.192;2022-09-24T07:58:28;8.82;;;7.93;;
11539;SDS011;5826;54.756;9.192;2022-09-24T08:00:58;8.57;;;7.78;;
11539;SDS011;5826;54.756;9.192;2022-09-24T08:03:24;8.23;;;7.38;;
11539;SDS011;5826;54.756;9.192;2022-09-24T08:05:50;8.98;;;8.07;;
11539;SDS011;5826;54.756;9.192;2022-09-24T08:08:20;7.53;;;6.72;;
11539;SDS011;5826;54.756;9.192;2022-09-24T08:10:45;9.15;;;8.15;;
11539;SDS011;5826;54.756;9.192;2022-09-24T08:13:11;7.63;;;6.90;;
11539;SDS011;5826;54.756;9.192;2022-09-24T08:15:37;9.35;;;8.00;;
11539;SDS011;5826;54.756;9.192;2022-09-24T08:18:02;7.00;;;6.22;;
11539;SDS011;5826;54.756;9.192;2022-09-24T08:20:29;8.77;;;7.10;;
11539;SDS011;5826;54.756;9.192;2022-09-24T08:23:00;9.13;;;7.78;;
11539;SDS011;5826;54.756;9.192;2022-09-24T08:25:26;9.57;;;7.28;;
11539;SDS011;5826;54.756;9.192;2022-09-24T08:27:51;9.85;;;8.45;;
11539;SDS011;5826;54.756;9.192;2022-09-24T08:30:17;10.68;;;8.35;;
11539;SDS011;5826;54.756;9.192;2022-09-24T08:32:46;7.57;;;6.65;;
11539;SDS011;5826;54.756;9.192;2022-09-24T08:35:14;10.32;;;8.75;;
11539;SDS011;5826;54.756;9.192;2022-09-24T08:37:40;8.77;;;7.00;;
11539;SDS011;5826;54.756;9.192;2022-09-24T08:40:06;10.32;;;7.78;;
11539;SDS011;5826;54.756;9.192;2022-09-24T08:42:46;7.07;;;5.97;;
11539;SDS011;5826;54.756;9.192;2022-09-24T08:45:17;7.63;;;6.32;;
11539;SDS011;5826;54.756;9.192;2022-09-24T08:48:09;7.60;;;6.40;;
11539;SDS011;5826;54.756;9.192;2022-09-24T08:50:40;9.48;;;7.15;;
11539;SDS011;5826;54.756;9.192;2022-09-24T08:53:25;10.40;;;8.40;;
11539;SDS011;5826;54.756;9.192;2022-09-24T08:55:58;9.77;;;7.75;;
11539;SDS011;5826;54.756;9.192;2022-09-24T08:58:32;11.77;;;8.68;;
11539;SDS011;5826;54.756;9.192;2022-09-24T09:01:44;8.48;;;6.90;;
11539;SDS011;5826;54.756;9.192;2022-09-24T09:07:12;7.25;;;5.97;;
11539;SDS011;5826;54.756;9.192;2022-09-24T09:09:48;6.70;;;5.97;;
11539;SDS011;5826;54.756;9.192;2022-09-24T09:12:30;9.63;;;7.07;;
11539;SDS011;5826;54.756;9.192;2022-09-24T09:15:02;9.70;;;7.90;;
11539;SDS011;5826;54.756;9.192;2022-09-24T09:17:46;11.07;;;8.27;;
11539;SDS011;5826;54.756;9.192;2022-09-24T09:20:29;11.23;;;8.30;;
11539;SDS011;5826;54.756;9.192;2022-09-24T09:23:14;10.25;;;8.20;;
11539;SDS011;5826;54.756;9.192;2022-09-24T09:25:46;7.85;;;6.93;;
11539;SDS011;5826;54.756;9.192;2022-09-24T09:28:17;8.20;;;6.70;;
11539;SDS011;5826;54.756;9.192;2022-09-24T09:33:37;7.78;;;6.50;;
11539;SDS011;5826;54.756;9.192;2022-09-24T09:36:34;10.52;;;8.00;;
11539;SDS011;5826;54.756;9.192;2022-09-24T09:39:27;8.00;;;7.05;;
11539;SDS011;5826;54.756;9.192;2022-09-24T09:42:15;7.20;;;6.50;;
11539;SDS011;5826;54.756;9.192;2022-09-24T09:48:01;7.55;;;6.45;;
11539;SDS011;5826;54.756;9.192;2022-09-24T09:53:17;8.50;;;7.40;;
11539;SDS011;5826;54.756;9.192;2022-09-24T09:55:55;6.78;;;5.60;;
11539;SDS011;5826;54.756;9.192;2022-09-24T09:58:31;7.05;;;6.30;;
11539;SDS011;5826;54.756;9.192;2022-09-24T10:01:19;9.75;;;8.75;;
11539;SDS011;5826;54.756;9.192;2022-09-24T10:03:55;8.57;;;7.50;;
11539;SDS011;5826;54.756;9.192;2022-09-24T10:06:25;6.63;;;5.93;;
11539;SDS011;5826;54.756;9.192;2022-09-24T10:09:04;8.32;;;6.97;;
11539;SDS011;5826;54.756;9.192;2022-09-24T10:11:37;8.80;;;7.18;;
11539;SDS011;5826;54.756;9.192;2022-09-24T10:14:04;8.77;;;7.88;;
11539;SDS011;5826;54.756;9.192;2022-09-24T10:16:40;9.60;;;8.13;;
11539;SDS011;5826;54.756;9.192;2022-09-24T10:19:13;7.78;;;6.75;;
11539;SDS011;5826;54.756;9.192;2022-09-24T10:21:45;8.05;;;6.43;;
11539;SDS011;5826;54.756;9.192;2022-09-24T10:24:13;7.95;;;7.15;;
11539;SDS011;5826;54.756;9.192;2022-09-24T10:26:42;7.15;;;6.18;;
11539;SDS011;5826;54.756;9.192;2022-09-24T10:29:13;8.30;;;6.60;;
11539;SDS011;5826;54.756;9.192;2022-09-24T10:32:01;7.55;;;6.75;;
11539;SDS011;5826;54.756;9.192;2022-09-24T10:34:28;8.65;;;7.70;;
11539;SDS011;5826;54.756;9.192;2022-09-24T10:37:01;9.77;;;7.63;;
11539;SDS011;5826;54.756;9.192;2022-09-24T10:39:29;8.82;;;7.72;;
11539;SDS011;5826;54.756;9.192;2022-09-24T10:41:55;8.02;;;6.95;;
11539;SDS011;5826;54.756;9.192;2022-09-24T10:44:22;8.05;;;7.25;;
11539;SDS011;5826;54.756;9.192;2022-09-24T10:47:09;8.35;;;7.00;;
11539;SDS011;5826;54.756;9.192;2022-09-24T10:55:35;7.95;;;7.10;;
11539;SDS011;5826;54.756;9.192;2022-09-24T11:01:02;5.88;;;5.28;;
11539;SDS011;5826;54.756;9.192;2022-09-24T11:03:46;6.72;;;5.22;;
11539;SDS011;5826;54.756;9.192;2022-09-24T11:12:15;5.72;;;5.05;;
11539;SDS011;5826;54.756;9.192;2022-09-24T11:28:38;5.93;;;4.50;;
11539;SDS011;5826;54.756;9.192;2022-09-24T11:31:28;4.63;;;4.10;;
11539;SDS011;5826;54.756;9.192;2022-09-24T11:34:05;9.60;;;6.53;;
11539;SDS011;5826;54.756;9.192;2022-09-24T11:36:56;6.07;;;4.22;;
11539;SDS011;5826;54.756;9.192;2022-09-24T11:39:44;8.07;;;4.30;;
11539;SDS011;5826;54.756;9.192;2022-09-24T11:45:35;6.80;;;3.95;;
11539;SDS011;5826;54.756;9.192;2022-09-24T11:48:15;3.65;;;3.00;;
11539;SDS011;5826;54.756;9.192;2022-09-24T11:56:14;3.53;;;2.50;;
11539;SDS011;5826;54.756;9.192;2022-09-24T11:58:42;3.65;;;3.00;;
11539;SDS011;5826;54.756;9.192;2022-09-24T12:01:25;6.13;;;3.28;;
11539;SDS011;5826;54.756;9.192;2022-09-24T12:11:51;3.17;;;2.17;;
11539;SDS011;5826;54.756;9.192;2022-09-24T12:14:29;3.40;;;2.17;;
11539;SDS011;5826;54.756;9.192;2022-09-24T12:17:05;4.20;;;2.22;;
11539;SDS011;5826;54.756;9.192;2022-09-24T12:22:20;4.15;;;2.53;;
11539;SDS011;5826;54.756;9.192;2022-09-24T12:24:52;3.08;;;1.88;;
11539;SDS011;5826;54.756;9.192;2022-09-24T12:27:20;5.90;;;3.05;;
11539;SDS011;5826;54.756;9.192;2022-09-24T12:30:02;3.25;;;2.53;;
11539;SDS011;5826;54.756;9.192;2022-09-24T12:38:42;4.38;;;2.60;;
11539;SDS011;5826;54.756;9.192;2022-09-24T12:41:16;3.67;;;2.08;;
11539;SDS011;5826;54.756;9.192;2022-09-24T12:51:48;4.18;;;2.20;;
11539;SDS011;5826;54.756;9.192;2022-09-24T12:54:26;5.55;;;2.60;;
11539;SDS011;5826;54.756;9.192;2022-09-24T12:59:49;3.20;;;1.58;;
11539;SDS011;5826;54.756;9.192;2022-09-24T13:02:26;3.92;;;1.67;;
11539;SDS011;5826;54.756;9.192;2022-09-24T13:07:53;2.40;;;1.80;;
11539;SDS011;5826;54.756;9.192;2022-09-24T13:12:50;2.17;;;1.50;;
11539;SDS011;5826;54.756;9.192;2022-09-24T13:15:31;2.42;;;1.40;;
11539;SDS011;5826;54.756;9.192;2022-09-24T13:18:16;3.00;;;1.42;;
11539;SDS011;5826;54.756;9.192;2022-09-24T13:20:54;2.42;;;1.63;;
11539;SDS011;5826;54.756;9.192;2022-09-24T13:28:32;1.77;;;1.25;;
11539;SDS011;5826;54.756;9.192;2022-09-24T13:33:53;3.60;;;1.95;;
11539;SDS011;5826;54.756;9.192;2022-09-24T13:36:41;2.58;;;1.65;;
11539;SDS011;5826;54.756;9.192;2022-09-24T13:39:21;4.15;;;2.15;;
11539;SDS011;5826;54.756;9.192;2022-09-24T13:42:06;3.50;;;1.92;;
11539;SDS011;5826;54.756;9.192;2022-09-24T13:44:41;3.10;;;2.10;;
11539;SDS011;5826;54.756;9.192;2022-09-24T13:47:12;2.92;;;1.60;;
11539;SDS011;5826;54.756;9.192;2022-09-24T13:49:50;2.45;;;1.60;;
11539;SDS011;5826;54.756;9.192;2022-09-24T13:54:56;2.35;;;1.60;;
11539;SDS011;5826;54.756;9.192;2022-09-24T13:57:25;2.15;;;1.50;;
11539;SDS011;5826;54.756;9.192;2022-09-24T14:00:12;2.20;;;1.40;;
11539;SDS011;5826;54.756;9.192;2022-09-24T14:02:41;1.77;;;1.45;;
11539;SDS011;5826;54.756;9.192;2022-09-24T14:05:14;2.78;;;1.30;;
11539;SDS011;5826;54.756;9.192;2022-09-24T14:07:41;2.00;;;1.33;;
11539;SDS011;5826;54.756;9.192;2022-09-24T14:10:15;2.50;;;1.40;;
11539;SDS011;5826;54.756;9.192;2022-09-24T14:12:41;2.15;;;1.35;;
11539;SDS011;5826;54.756;9.192;2022-09-24T14:15:15;2.55;;;1.35;;
11539;SDS011;5826;54.756;9.192;2022-09-24T14:17:41;2.10;;;1.35;;
11539;SDS011;5826;54.756;9.192;2022-09-24T14:20:11;2.05;;;1.23;;
11539;SDS011;5826;54.756;9.192;2022-09-24T14:22:40;1.75;;;1.20;;
11539;SDS011;5826;54.756;9.192;2022-09-24T14:25:09;1.63;;;1.23;;
11539;SDS011;5826;54.756;9.192;2022-09-24T14:27:42;4.13;;;1.77;;
11539;SDS011;5826;54.756;9.192;2022-09-24T14:30:17;1.83;;;1.33;;
11539;SDS011;5826;54.756;9.192;2022-09-24T14:32:48;2.08;;;1.15;;
11539;SDS011;5826;54.756;9.192;2022-09-24T14:35:18;3.15;;;1.60;;
11539;SDS011;5826;54.756;9.192;2022-09-24T14:40:37;1.65;;;1.30;;
11539;SDS011;5826;54.756;9.192;2022-09-24T14:43:25;1.55;;;1.10;;
11539;SDS011;5826;54.756;9.192;2022-09-24T14:46:03;2.22;;;1.27;;
11539;SDS011;5826;54.756;9.192;2022-09-24T14:48:33;1.45;;;1.10;;
11539;SDS011;5826;54.756;9.192;2022-09-24T14:50:59;2.00;;;1.10;;
11539;SDS011;5826;54.756;9.192;2022-09-24T14:53:29;1.20;;;1.10;;
11539;SDS011;5826;54.756;9.192;2022-09-24T14:55:58;1.20;;;0.93;;
11539;SDS011;5826;54.756;9.192;2022-09-24T15:00:57;1.85;;;1.30;;
11539;SDS011;5826;54.756;9.192;2022-09-24T15:03:31;1.75;;;1.20;;
11539;SDS011;5826;54.756;9.192;2022-09-24T15:06:17;1.33;;;1.00;;
11539;SDS011;5826;54.756;9.192;2022-09-24T15:08:43;2.17;;;0.95;;
11539;SDS011;5826;54.756;9.192;2022-09-24T15:11:24;1.60;;;1.15;;
11539;SDS011;5826;54.756;9.192;2022-09-24T15:14:37;3.03;;;1.20;;
11539;SDS011;5826;54.756;9.192;2022-09-24T15:16:50;2.30;;;1.17;;
11539;SDS011;5826;54.756;9.192;2022-09-24T15:19:18;2.55;;;1.20;;
11539;SDS011;5826;54.756;9.192;2022-09-24T15:21:45;1.55;;;1.00;;
11539;SDS011;5826;54.756;9.192;2022-09-24T15:24:12;1.27;;;0.90;;
11539;SDS011;5826;54.756;9.192;2022-09-24T15:26:39;1.70;;;0.93;;
11539;SDS011;5826;54.756;9.192;2022-09-24T15:29:08;2.53;;;1.15;;
11539;SDS011;5826;54.756;9.192;2022-09-24T15:31:42;1.85;;;0.90;;
11539;SDS011;5826;54.756;9.192;2022-09-24T15:34:07;1.60;;;1.10;;
11539;SDS011;5826;54.756;9.192;2022-09-24T15:36:33;2.03;;;1.05;;
11539;SDS011;5826;54.756;9.192;2022-09-24T15:39:00;2.67;;;1.10;;
11539;SDS011;5826;54.756;9.192;2022-09-24T15:41:27;1.30;;;0.80;;
11539;SDS011;5826;54.756;9.192;2022-09-24T15:43:56;1.73;;;1.00;;
11539;SDS011;5826;54.756;9.192;2022-09-24T15:46:22;1.83;;;0.90;;
11539;SDS011;5826;54.756;9.192;2022-09-24T15:48:48;2.72;;;1.00;;
11539;SDS011;5826;54.756;9.192;2022-09-24T15:51:14;1.70;;;0.90;;
11539;SDS011;5826;54.756;9.192;2022-09-24T15:53:43;1.75;;;0.98;;
11539;SDS011;5826;54.756;9.192;2022-09-24T15:56:09;1.15;;;0.90;;
11539;SDS011;5826;54.756;9.192;2022-09-24T15:58:35;2.42;;;1.10;;
11539;SDS011;5826;54.756;9.192;2022-09-24T16:01:00;1.90;;;1.05;;
11539;SDS011;5826;54.756;9.192;2022-09-24T16:03:27;1.08;;;0.85;;
11539;SDS011;5826;54.756;9.192;2022-09-24T16:05:55;1.52;;;0.95;;
11539;SDS011;5826;54.756;9.192;2022-09-24T16:08:21;1.80;;;1.05;;
11539;SDS011;5826;54.756;9.192;2022-09-24T16:10:47;1.75;;;1.00;;
11539;SDS011;5826;54.756;9.192;2022-09-24T16:13:13;1.55;;;1.10;;
11539;SDS011;5826;54.756;9.192;2022-09-24T16:15:39;1.08;;;0.80;;
11539;SDS011;5826;54.756;9.192;2022-09-24T16:18:05;1.65;;;0.90;;
11539;SDS011;5826;54.756;9.192;2022-09-24T16:20:33;1.33;;;1.00;;
11539;SDS011;5826;54.756;9.192;2022-09-24T16:23:02;2.70;;;1.20;;
11539;SDS011;5826;54.756;9.192;2022-09-24T16:25:27;1.90;;;1.10;;
11539;SDS011;5826;54.756;9.192;2022-09-24T16:27:53;1.85;;;1.25;;
11539;SDS011;5826;54.756;9.192;2022-09-24T16:30:21;2.85;;;1.40;;
11539;SDS011;5826;54.756;9.192;2022-09-24T16:32:46;3.00;;;1.20;;
11539;SDS011;5826;54.756;9.192;2022-09-24T16:35:12;2.65;;;1.25;;
11539;SDS011;5826;54.756;9.192;2022-09-24T16:37:37;2.20;;;1.20;;
11539;SDS011;5826;54.756;9.192;2022-09-24T16:40:03;3.40;;;1.40;;
11539;SDS011;5826;54.756;9.192;2022-09-24T16:42:29;1.88;;;1.23;;
11539;SDS011;5826;54.756;9.192;2022-09-24T16:44:55;3.35;;;1.40;;
11539;SDS011;5826;54.756;9.192;2022-09-24T16:47:20;2.50;;;1.20;;
11539;SDS011;5826;54.756;9.192;2022-09-24T16:49:46;2.50;;;1.23;;
11539;SDS011;5826;54.756;9.192;2022-09-24T16:52:12;2.22;;;1.30;;
11539;SDS011;5826;54.756;9.192;2022-09-24T16:54:38;2.28;;;1.20;;
11539;SDS011;5826;54.756;9.192;2022-09-24T16:57:03;2.63;;;1.23;;
11539;SDS011;5826;54.756;9.192;2022-09-24T16:59:30;2.97;;;1.33;;
11539;SDS011;5826;54.756;9.192;2022-09-24T17:01:56;1.73;;;1.20;;
11539;SDS011;5826;54.756;9.192;2022-09-24T17:04:22;2.83;;;1.48;;
11539;SDS011;5826;54.756;9.192;2022-09-24T17:06:49;3.45;;;1.52;;
11539;SDS011;5826;54.756;9.192;2022-09-24T17:09:18;3.55;;;1.60;;
11539;SDS011;5826;54.756;9.192;2022-09-24T17:12:02;2.58;;;1.20;;